ENAN/ANX METAR and TAF weather

Enter ICAO airport designator
Station Type Date Time Source
ENAN METAR 2019/10/21 23:20 UTC NOAA

ENAN 212320Z AUTO 15017KT 9999 -DZ BKN010/// BKN024/// OVC033/// 03/02 Q0997


Station Type Date Time Source
ENAN Decoded METAR 2019/10/21 23:20 UTC NOAA

Andoya, Norway (ENAN) 69-18N 016-09E 14M
Oct 21, 2019 - 07:20 PM EDT / 2019.10.21 2320 UTC
Wind: from the SSE (150 degrees) at 20 MPH (17 KT):0
Visibility: greater than 7 mile(s):0
Sky conditions: overcast
Weather: light drizzle
Temperature: 37 F (3 C)
Dew Point: 35 F (2 C)
Relative Humidity: 93%
Pressure (altimeter): 29.44 in. Hg (0997 hPa)
ob: ENAN 212320Z AUTO 15017KT 9999 -DZ BKN010/// BKN024/// OVC033/// 03/02 Q0997
cycle: 23

Station Type Date Time Source
ENAN TAF 2019/10/21 20:48 UTC NOAA

TAF TAF
AMD ENAN 2120/2218 12020KT 9999 FEW010 BKN030
TEMPO 2120/2209 4000 RADZ BKN008
TEMPO 2120/2124 15009KT
TEMPO 2203/2212 15030G40KT
TEMPO 2209/2218 SHRAGS BKN012CB
BECMG 2214/2216 17009KT

Example: see airport list